Deer Isle, Maine
Current Conditions -  °F | °C
As of 4:55 AM on Sunday 21 Dec 2014 (Local Time) from KBHB Reporting Station
Overcast Overcast  
Wind Chill: 21°   Ceiling: 3500
Heat Index: 27°   Visibility: 10mi
Dew Point: 25°   Wind: 5mph
Humidity: 93%   Direction: 360°N
Pressure: 30.33"   Gusts: NA
Location:  44.21°N, 68.68°W
Report Text: KBHB 210955Z AUTO 36004KT 10SM OVC035 M03/M04 A3033 RMK AO1
Loading
Personal Weather Stations






























Interactive Weather Map New forecast layout! Learn more

10-Day Weather Forecast

Advertisements
Track Severe Weather on mobile